createdAt,value
2019-05-15T00:00:06.234Z,8.68
2019-05-15T00:02:38.747Z,8.69
2019-05-15T00:05:09.593Z,8.68
2019-05-15T00:07:39.974Z,8.68
2019-05-15T00:10:10.624Z,8.68
2019-05-15T00:12:40.814Z,8.67
2019-05-15T00:15:11.592Z,8.66
2019-05-15T00:17:41.860Z,8.62
2019-05-15T00:20:12.749Z,8.58
2019-05-15T00:22:43.125Z,8.54
2019-05-15T00:25:13.632Z,8.49
2019-05-15T00:27:43.978Z,8.45
2019-05-15T00:30:14.631Z,8.40
2019-05-15T00:32:45.012Z,8.35
2019-05-15T00:35:15.595Z,8.33
2019-05-15T00:37:45.835Z,8.28
2019-05-15T00:40:18.352Z,8.23
2019-05-15T00:42:48.980Z,8.18
2019-05-15T00:45:19.701Z,8.12
2019-05-15T00:47:50.173Z,8.06
2019-05-15T00:50:21.003Z,8.02
2019-05-15T00:52:51.487Z,7.97
2019-05-15T00:55:21.906Z,7.91
2019-05-15T00:57:52.484Z,7.86
2019-05-15T01:00:42.225Z,7.81
2019-05-15T01:03:12.655Z,7.78
2019-05-15T01:05:42.996Z,7.72
2019-05-15T01:08:13.466Z,7.69
2019-05-15T01:10:44.007Z,7.67
2019-05-15T01:13:14.539Z,7.63
2019-05-15T01:15:44.961Z,7.61
2019-05-15T01:18:15.386Z,7.57
2019-05-15T01:20:45.971Z,7.52
2019-05-15T01:23:18.590Z,7.46
2019-05-15T01:25:48.566Z,7.41
2019-05-15T01:28:18.959Z,7.37
2019-05-15T01:30:49.442Z,7.33
2019-05-15T01:33:19.840Z,7.28
2019-05-15T01:35:50.050Z,7.25
2019-05-15T01:38:20.342Z,7.21
2019-05-15T01:40:50.724Z,7.19
2019-05-15T01:43:21.073Z,7.15
2019-05-15T01:45:54.103Z,7.11
2019-05-15T01:48:24.565Z,7.07
2019-05-15T01:50:54.998Z,7.05
2019-05-15T01:53:25.269Z,7.01
2019-05-15T01:55:55.634Z,6.97
2019-05-15T01:58:25.928Z,6.93
2019-05-15T02:00:56.236Z,6.89
2019-05-15T02:03:28.773Z,6.87
2019-05-15T02:05:58.770Z,6.84
2019-05-15T02:08:29.168Z,6.79
2019-05-15T02:10:59.752Z,6.76
2019-05-15T02:13:29.913Z,6.72
2019-05-15T02:16:00.168Z,6.67
2019-05-15T02:18:30.718Z,6.64
2019-05-15T02:21:00.906Z,6.63
2019-05-15T02:23:31.407Z,6.59
2019-05-15T02:26:01.791Z,6.57
2019-05-15T02:28:32.055Z,6.56
2019-05-15T02:31:02.380Z,6.53
2019-05-15T02:33:32.770Z,6.47
2019-05-15T02:36:02.985Z,6.44
2019-05-15T02:38:33.142Z,6.40
2019-05-15T02:41:03.603Z,6.39
2019-05-15T02:43:34.073Z,6.36
2019-05-15T02:46:04.342Z,6.34
2019-05-15T02:48:34.982Z,6.30
2019-05-15T02:51:05.403Z,6.27
2019-05-15T02:53:39.449Z,6.26
2019-05-15T02:56:09.310Z,6.23
2019-05-15T02:58:40.197Z,6.21
2019-05-15T03:01:10.422Z,6.21
2019-05-15T03:03:40.689Z,6.46
2019-05-15T03:06:11.128Z,6.36
2019-05-15T03:08:41.731Z,6.29
2019-05-15T03:11:12.142Z,6.26
2019-05-15T03:13:42.735Z,6.22
2019-05-15T03:16:13.174Z,6.19
2019-05-15T03:18:43.637Z,6.17
2019-05-15T03:21:14.353Z,6.15
2019-05-15T03:23:44.743Z,6.12
2019-05-15T03:26:15.084Z,6.23
2019-05-15T03:28:45.576Z,6.18
2019-05-15T03:31:35.750Z,6.14
2019-05-15T03:33:53.384Z,6.11
2019-05-15T03:36:22.977Z,6.09
2019-05-15T03:38:52.684Z,6.07
2019-05-15T03:41:22.887Z,6.04
2019-05-15T03:43:53.125Z,6.02
2019-05-15T03:46:23.605Z,5.98
2019-05-15T03:48:53.746Z,5.97
2019-05-15T03:51:23.987Z,5.96
2019-05-15T03:53:54.222Z,5.95
2019-05-15T03:56:24.442Z,5.94
2019-05-15T03:58:54.648Z,5.95
2019-05-15T04:01:34.180Z,5.97
2019-05-15T04:03:59.606Z,5.97
2019-05-15T04:06:29.826Z,5.99
2019-05-15T04:09:00.298Z,6.02
2019-05-15T04:11:30.543Z,6.05
2019-05-15T04:14:00.719Z,6.08
2019-05-15T04:16:30.973Z,6.11
2019-05-15T04:19:01.088Z,6.16
2019-05-15T04:21:31.350Z,6.21
2019-05-15T04:24:01.651Z,6.26
2019-05-15T04:26:34.866Z,6.31
2019-05-15T04:29:05.147Z,6.38
2019-05-15T04:31:50.825Z,6.44
2019-05-15T04:34:09.217Z,6.52
2019-05-15T04:36:44.318Z,6.58
2019-05-15T04:39:11.824Z,6.65
2019-05-15T04:41:42.070Z,6.74
2019-05-15T04:44:12.277Z,6.82
2019-05-15T04:46:42.482Z,6.91
2019-05-15T04:49:12.636Z,7.01
2019-05-15T04:51:42.838Z,7.12
2019-05-15T04:54:13.019Z,7.22
2019-05-15T04:56:43.337Z,7.32
2019-05-15T04:59:13.887Z,7.42
2019-05-15T05:01:44.486Z,7.51
2019-05-15T05:04:15.033Z,7.66
2019-05-15T05:06:45.983Z,7.77
2019-05-15T05:09:19.615Z,7.88
2019-05-15T05:11:49.011Z,7.99
2019-05-15T05:14:19.626Z,8.09
2019-05-15T05:16:51.268Z,8.22
2019-05-15T05:19:21.843Z,8.34
2019-05-15T05:21:52.291Z,8.46
2019-05-15T05:24:22.668Z,8.58
2019-05-15T05:26:53.130Z,8.69
2019-05-15T05:29:23.506Z,8.82
2019-05-15T05:31:54.091Z,8.92
2019-05-15T05:34:24.546Z,9.05
2019-05-15T05:36:55.037Z,9.15
2019-05-15T05:39:25.487Z,9.26
2019-05-15T05:41:55.927Z,9.37
2019-05-15T05:44:29.093Z,9.48
2019-05-15T05:46:59.824Z,9.62
2019-05-15T05:49:30.292Z,9.73
2019-05-15T05:52:00.812Z,9.87
2019-05-15T05:54:31.334Z,9.96
2019-05-15T05:57:01.753Z,10.06
2019-05-15T05:59:32.088Z,10.17
2019-05-15T06:04:27.947Z,10.41
2019-05-15T06:07:09.239Z,10.51
2019-05-15T06:09:29.800Z,10.62
2019-05-15T06:12:00.001Z,10.77
2019-05-15T06:14:30.186Z,10.91
2019-05-15T06:17:00.316Z,11.02
2019-05-15T06:19:31.445Z,11.14
2019-05-15T06:22:01.612Z,11.27
2019-05-15T06:24:31.734Z,11.41
2019-05-15T06:27:01.844Z,11.54
2019-05-15T06:29:31.932Z,11.67
2019-05-15T06:32:02.154Z,11.82
2019-05-15T06:34:32.219Z,11.97
2019-05-15T06:37:02.470Z,12.07
2019-05-15T06:39:32.695Z,12.18
2019-05-15T06:42:02.801Z,12.30
2019-05-15T06:44:33.228Z,12.42
2019-05-15T06:47:03.296Z,12.52
2019-05-15T06:49:37.815Z,12.63
2019-05-15T06:52:08.823Z,12.75
2019-05-15T06:54:39.126Z,12.88
2019-05-15T06:57:09.313Z,13.00
2019-05-15T06:59:39.471Z,13.11
2019-05-15T07:02:09.897Z,13.25
2019-05-15T07:04:40.083Z,13.39
2019-05-15T07:07:11.254Z,13.51
2019-05-15T07:09:41.455Z,13.61
2019-05-15T07:12:11.657Z,13.70
2019-05-15T07:14:41.850Z,13.81
2019-05-15T07:17:12.125Z,13.92
2019-05-15T07:19:42.345Z,14.07
2019-05-15T07:22:12.568Z,14.23
2019-05-15T07:24:42.892Z,14.39
2019-05-15T07:27:13.036Z,14.57
2019-05-15T07:29:43.172Z,14.71
2019-05-15T07:32:13.327Z,14.83
2019-05-15T07:34:43.566Z,14.95
2019-05-15T07:37:13.965Z,15.05
2019-05-15T07:39:44.070Z,15.12
2019-05-15T07:42:14.322Z,15.17
2019-05-15T07:44:44.509Z,15.28
2019-05-15T07:47:14.787Z,15.39
2019-05-15T07:49:45.005Z,15.57
2019-05-15T07:52:15.086Z,15.76
2019-05-15T07:54:45.233Z,15.93
2019-05-15T07:57:15.387Z,16.04
2019-05-15T07:59:47.922Z,16.29
2019-05-15T08:02:19.054Z,16.49
2019-05-15T08:04:49.435Z,16.61
2019-05-15T08:07:19.704Z,16.68
2019-05-15T08:09:49.939Z,16.74
2019-05-15T08:12:20.161Z,16.77
2019-05-15T08:14:51.025Z,16.83
2019-05-15T08:17:22.148Z,16.97
2019-05-15T08:19:52.575Z,17.08
2019-05-15T08:22:22.825Z,17.20
2019-05-15T08:24:53.159Z,17.30
2019-05-15T08:27:23.798Z,17.41
2019-05-15T08:29:53.912Z,17.47
2019-05-15T08:32:24.226Z,17.54
2019-05-15T08:34:54.475Z,17.60
2019-05-15T08:37:24.848Z,17.72
2019-05-15T08:39:55.025Z,17.86
2019-05-15T08:42:25.244Z,18.00
2019-05-15T08:44:55.540Z,18.06
2019-05-15T08:47:25.690Z,18.17
2019-05-15T08:49:57.888Z,18.26
2019-05-15T08:52:28.265Z,18.37
2019-05-15T08:54:59.250Z,18.46
2019-05-15T08:57:29.501Z,18.53
2019-05-15T08:59:59.867Z,18.64
2019-05-15T09:02:30.274Z,18.73
2019-05-15T09:05:00.459Z,18.87
2019-05-15T09:07:30.753Z,18.95
2019-05-15T09:10:01.047Z,19.03
2019-05-15T09:12:31.285Z,19.10
2019-05-15T09:15:01.506Z,19.21
2019-05-15T09:17:31.833Z,19.28
2019-05-15T09:20:02.041Z,19.36
2019-05-15T09:22:32.417Z,19.40
2019-05-15T09:25:02.764Z,19.53
2019-05-15T09:27:32.965Z,19.69
2019-05-15T09:30:03.549Z,19.84
2019-05-15T09:32:33.906Z,19.93
2019-05-15T09:35:04.297Z,19.97
2019-05-15T09:37:34.609Z,20.02
2019-05-15T09:40:04.933Z,20.07
2019-05-15T09:42:35.183Z,20.17
2019-05-15T09:45:06.112Z,20.30
2019-05-15T09:47:39.160Z,20.43
2019-05-15T09:50:08.927Z,20.51
2019-05-15T09:52:39.324Z,20.46
2019-05-15T09:55:10.794Z,20.40
2019-05-15T09:57:41.211Z,20.43
2019-05-15T10:00:12.562Z,20.53
2019-05-15T10:02:43.115Z,20.65
2019-05-15T10:05:14.949Z,20.73
2019-05-15T10:07:45.240Z,20.78
2019-05-15T10:10:15.586Z,20.89
2019-05-15T10:12:45.813Z,20.99
2019-05-15T10:15:18.609Z,21.01
2019-05-15T10:17:50.873Z,20.98
2019-05-15T10:20:20.749Z,21.03
2019-05-15T10:22:54.680Z,21.12
2019-05-15T10:25:22.854Z,21.19
2019-05-15T10:27:52.996Z,21.29
2019-05-15T10:30:23.719Z,21.38
2019-05-15T10:32:54.020Z,21.52
2019-05-15T10:35:28.477Z,21.57
2019-05-15T10:37:56.114Z,21.46
2019-05-15T10:40:29.591Z,21.40
2019-05-15T10:42:59.483Z,21.47
2019-05-15T10:45:29.792Z,21.55
2019-05-15T10:47:59.969Z,21.66
2019-05-15T10:50:30.216Z,21.79
2019-05-15T10:53:00.538Z,21.89
2019-05-15T10:55:30.659Z,21.83
2019-05-15T10:58:01.009Z,21.91
2019-05-15T11:00:31.450Z,22.13
2019-05-15T11:03:01.793Z,22.32
2019-05-15T11:05:44.697Z,22.30
2019-05-15T11:08:04.010Z,22.20
2019-05-15T11:10:34.241Z,22.17
2019-05-15T11:13:04.652Z,22.23
2019-05-15T11:15:35.025Z,22.20
2019-05-15T11:18:05.264Z,22.06
2019-05-15T11:20:35.594Z,22.03
2019-05-15T11:23:08.776Z,22.09
2019-05-15T11:25:39.003Z,22.15
2019-05-15T11:28:09.245Z,22.22
2019-05-15T11:30:39.592Z,22.25
2019-05-15T11:33:10.337Z,22.30
2019-05-15T11:35:56.838Z,22.37
2019-05-15T11:38:12.938Z,22.51
2019-05-15T11:40:43.703Z,22.76
2019-05-15T11:43:14.047Z,22.88
2019-05-15T11:45:48.207Z,23.09
2019-05-15T11:48:20.675Z,23.40
2019-05-15T11:50:50.879Z,23.82
2019-05-15T11:53:21.230Z,24.17
2019-05-15T11:55:51.421Z,24.59
2019-05-15T11:58:21.709Z,25.18
2019-05-15T12:00:52.001Z,25.64
2019-05-15T12:03:24.830Z,25.97
2019-05-15T12:05:54.224Z,26.23
2019-05-15T12:08:24.495Z,26.57
2019-05-15T12:10:54.898Z,26.88
2019-05-15T12:13:25.198Z,27.32
2019-05-15T12:15:55.523Z,27.74
2019-05-15T12:18:27.940Z,27.94
2019-05-15T12:20:59.623Z,28.21
2019-05-15T12:23:30.161Z,28.69
2019-05-15T12:26:00.386Z,29.10
2019-05-15T12:28:30.628Z,29.39
2019-05-15T12:31:01.052Z,29.68
2019-05-15T12:33:31.329Z,29.92
2019-05-15T12:36:01.709Z,30.36
2019-05-15T12:38:32.329Z,30.90
2019-05-15T13:01:21.853Z,29.65
2019-05-15T13:03:52.496Z,29.16
2019-05-15T13:06:22.656Z,29.04
2019-05-15T13:08:53.060Z,28.84
2019-05-15T13:11:23.428Z,28.71
2019-05-15T13:13:53.809Z,28.87
2019-05-15T13:16:24.031Z,29.22
2019-05-15T13:18:54.217Z,29.19
2019-05-15T13:21:24.517Z,28.89
2019-05-15T13:23:54.794Z,29.06
2019-05-15T13:26:27.079Z,29.14
2019-05-15T13:28:58.278Z,29.25
2019-05-15T13:31:28.851Z,29.79
2019-05-15T13:33:59.000Z,30.52
2019-05-15T13:36:29.355Z,31.14
2019-05-15T13:38:59.585Z,31.67
2019-05-15T13:41:29.919Z,32.24
2019-05-15T13:44:00.263Z,32.49
2019-05-15T13:46:32.866Z,32.11
2019-05-15T13:49:02.714Z,32.05
2019-05-15T13:51:33.277Z,32.36
2019-05-15T13:54:03.959Z,32.43
2019-05-15T13:56:34.587Z,32.52
2019-05-15T13:59:05.221Z,32.63
2019-05-15T14:01:35.962Z,32.65
2019-05-15T14:04:09.671Z,32.71
2019-05-15T14:06:40.110Z,33.03
2019-05-15T14:09:12.626Z,33.51
2019-05-15T14:11:43.267Z,33.77
2019-05-15T14:14:13.850Z,34.07
2019-05-15T14:16:44.425Z,34.14
2019-05-15T14:19:15.074Z,34.00
2019-05-15T14:24:19.942Z,34.70
2019-05-15T14:26:50.830Z,34.95
2019-05-15T14:29:21.524Z,35.18
2019-05-15T14:31:52.045Z,35.28
2019-05-15T14:34:22.580Z,35.63
2019-05-15T14:36:53.955Z,36.20
2019-05-15T14:39:24.726Z,36.09
2019-05-15T14:41:58.201Z,35.93
2019-05-15T14:44:27.622Z,36.01
2019-05-15T14:46:58.297Z,36.15
2019-05-15T14:49:34.546Z,36.44
2019-05-15T14:52:08.574Z,36.53
2019-05-15T14:54:33.794Z,36.67
2019-05-15T14:57:04.292Z,37.20
2019-05-15T14:59:34.916Z,37.54
2019-05-15T15:04:48.683Z,38.20
2019-05-15T15:07:19.340Z,38.65
2019-05-15T15:09:50.028Z,39.09
2019-05-15T15:12:20.794Z,39.08
2019-05-15T15:14:51.469Z,38.12
2019-05-15T15:17:22.081Z,37.55
2019-05-15T15:19:53.145Z,37.96
2019-05-15T15:22:24.119Z,38.38
2019-05-15T15:24:55.698Z,38.55
2019-05-15T15:27:28.063Z,38.68
2019-05-15T15:29:58.643Z,38.75
2019-05-15T15:32:29.521Z,38.76
2019-05-15T15:35:00.262Z,38.72
2019-05-15T15:37:31.067Z,38.67
2019-05-15T15:40:01.662Z,38.91
2019-05-15T15:42:32.347Z,39.01
2019-05-15T15:45:02.956Z,39.11
2019-05-15T15:47:33.432Z,38.94
2019-05-15T15:50:04.356Z,38.63
2019-05-15T15:52:35.331Z,38.26
2019-05-15T15:55:08.813Z,39.02
2019-05-15T15:57:39.719Z,39.00
2019-05-15T16:00:11.470Z,38.93
2019-05-15T16:02:41.924Z,38.98
2019-05-15T16:05:12.812Z,39.20
2019-05-15T16:07:43.518Z,39.26
2019-05-15T16:10:14.100Z,39.26
2019-05-15T16:12:44.367Z,39.30
2019-05-15T16:15:15.078Z,39.05
2019-05-15T16:17:45.345Z,38.85
2019-05-15T16:20:18.731Z,38.99
2019-05-15T16:22:48.822Z,39.22
2019-05-15T16:25:19.503Z,39.52
2019-05-15T16:27:49.969Z,39.57
2019-05-15T16:30:20.481Z,39.24
2019-05-15T16:32:51.126Z,39.45
2019-05-15T16:35:21.453Z,39.69
2019-05-15T16:37:51.618Z,39.81
2019-05-15T16:40:21.884Z,39.68
2019-05-15T16:42:52.062Z,39.32
2019-05-15T16:45:22.382Z,39.03
2019-05-15T16:47:52.849Z,39.07
2019-05-15T16:50:22.915Z,39.05
2019-05-15T16:52:52.990Z,39.09
2019-05-15T16:55:23.206Z,38.91
2019-05-15T16:57:53.447Z,38.49
2019-05-15T17:00:23.745Z,38.33
2019-05-15T17:03:08.622Z,37.96
2019-05-15T17:05:26.038Z,37.41
2019-05-15T17:07:58.377Z,36.85
2019-05-15T17:10:28.299Z,36.72
2019-05-15T17:12:58.543Z,36.81
2019-05-15T17:15:28.832Z,36.86
2019-05-15T17:17:58.949Z,36.67
2019-05-15T17:20:29.119Z,36.53
2019-05-15T17:22:59.358Z,36.29
2019-05-15T17:25:29.506Z,36.44
2019-05-15T17:27:59.741Z,36.58
2019-05-15T17:30:30.245Z,36.18
2019-05-15T17:33:00.697Z,35.69
2019-05-15T17:35:30.891Z,35.24
2019-05-15T17:38:01.068Z,34.25
2019-05-15T17:40:31.369Z,33.49
2019-05-15T17:43:02.570Z,33.79
2019-05-15T17:45:35.308Z,34.03
2019-05-15T17:48:08.931Z,33.90
2019-05-15T17:50:48.416Z,33.69
2019-05-15T17:53:11.634Z,33.71
2019-05-15T17:55:42.138Z,33.66
2019-05-15T17:58:12.678Z,33.53
2019-05-15T18:00:43.727Z,33.76
2019-05-15T18:03:14.569Z,33.96
2019-05-15T18:05:45.054Z,33.30
2019-05-15T18:08:15.607Z,31.35
2019-05-15T18:10:47.852Z,29.31
2019-05-15T18:13:18.286Z,27.76
2019-05-15T18:15:48.967Z,26.40
2019-05-15T18:18:19.583Z,25.25
2019-05-15T18:20:50.189Z,24.32
2019-05-15T18:23:23.512Z,23.76
2019-05-15T18:25:53.385Z,23.29
2019-05-15T18:28:23.467Z,22.90
2019-05-15T18:30:53.640Z,22.55
2019-05-15T18:33:23.885Z,22.08
2019-05-15T18:35:54.071Z,21.56
2019-05-15T18:38:24.322Z,21.16
2019-05-15T18:40:54.470Z,20.69
2019-05-15T18:43:24.686Z,20.30
2019-05-15T18:45:54.827Z,20.06
2019-05-15T18:48:25.048Z,19.91
2019-05-15T18:50:55.379Z,19.64
2019-05-15T18:53:25.545Z,19.38
2019-05-15T18:55:55.720Z,19.14
2019-05-15T18:58:26.047Z,18.83
2019-05-15T19:00:58.364Z,18.61
2019-05-15T19:03:28.136Z,18.44
2019-05-15T19:05:58.587Z,18.23
2019-05-15T19:08:28.752Z,18.00
2019-05-15T19:10:59.035Z,17.80
2019-05-15T19:13:29.822Z,17.64
2019-05-15T19:16:00.908Z,17.45
2019-05-15T19:18:31.315Z,17.27
2019-05-15T19:21:01.703Z,17.05
2019-05-15T19:23:32.316Z,16.84
2019-05-15T19:28:39.131Z,16.52
2019-05-15T19:31:22.918Z,16.31
2019-05-15T19:33:42.292Z,16.18
2019-05-15T19:36:12.920Z,16.03
2019-05-15T19:38:43.530Z,15.87
2019-05-15T19:41:14.429Z,16.00
2019-05-15T19:43:45.039Z,15.71
2019-05-15T19:46:15.537Z,15.50
2019-05-15T19:48:48.775Z,15.32
2019-05-15T19:51:18.558Z,15.19
2019-05-15T19:53:49.105Z,15.06
2019-05-15T19:56:19.595Z,14.94
2019-05-15T19:58:50.113Z,14.83
2019-05-15T20:01:20.592Z,14.72
2019-05-15T20:03:53.332Z,14.63
2019-05-15T20:06:23.981Z,14.52
2019-05-15T20:11:21.571Z,14.66
2019-05-15T20:13:53.971Z,14.38
2019-05-15T20:16:28.417Z,14.22
2019-05-15T20:18:59.404Z,14.04
2019-05-15T20:21:30.296Z,13.77
2019-05-15T20:24:01.581Z,13.73
2019-05-15T20:26:32.007Z,13.59
2019-05-15T20:29:02.571Z,13.48
2019-05-15T20:31:33.889Z,13.37
2019-05-15T20:34:06.133Z,13.22
2019-05-15T20:36:38.504Z,13.11
2019-05-15T20:39:08.489Z,12.99
2019-05-15T20:41:38.637Z,12.90
2019-05-15T20:44:09.037Z,12.81
2019-05-15T20:46:39.324Z,12.71
2019-05-15T20:49:09.517Z,12.64
2019-05-15T20:51:39.854Z,12.56
2019-05-15T20:54:10.215Z,12.47
2019-05-15T20:56:40.724Z,12.39
2019-05-15T20:59:12.262Z,12.31
2019-05-15T21:01:42.563Z,12.24
2019-05-15T21:04:20.577Z,12.20
2019-05-15T21:06:44.830Z,12.17
2019-05-15T21:09:15.189Z,12.12
2019-05-15T21:11:45.395Z,12.05
2019-05-15T21:14:15.639Z,11.99
2019-05-15T21:16:48.058Z,11.93
2019-05-15T21:19:18.982Z,11.85
2019-05-15T21:21:49.302Z,11.77
2019-05-15T21:24:19.576Z,11.72
2019-05-15T21:26:50.041Z,11.68
2019-05-15T21:29:20.668Z,11.65
2019-05-15T21:31:51.186Z,11.58
2019-05-15T21:34:36.719Z,11.56
2019-05-15T21:36:54.481Z,11.51
2019-05-15T21:39:25.088Z,11.46
2019-05-15T21:41:55.386Z,11.36
2019-05-15T21:44:29.217Z,11.33
2019-05-15T21:46:58.836Z,11.27
2019-05-15T21:49:29.121Z,11.20
2019-05-15T21:51:59.442Z,11.13
2019-05-15T21:54:29.521Z,11.09
2019-05-15T21:57:18.681Z,11.04
2019-05-15T21:59:31.500Z,10.99
2019-05-15T22:02:20.658Z,10.95
2019-05-15T22:04:55.788Z,10.91
2019-05-15T22:07:23.148Z,10.85
2019-05-15T22:09:53.320Z,10.80
2019-05-15T22:12:23.590Z,10.75
2019-05-15T22:14:53.689Z,10.71
2019-05-15T22:17:23.932Z,10.66
2019-05-15T22:19:54.364Z,10.77
2019-05-15T22:22:24.625Z,10.66
2019-05-15T22:24:54.770Z,10.58
2019-05-15T22:27:25.104Z,10.52
2019-05-15T22:29:55.339Z,10.47
2019-05-15T22:32:25.481Z,10.39
2019-05-15T22:35:06.968Z,10.35
2019-05-15T22:37:29.452Z,10.32
2019-05-15T22:40:00.934Z,10.27
2019-05-15T22:42:31.779Z,10.22
2019-05-15T22:45:02.203Z,10.18
2019-05-15T22:47:35.173Z,10.14
2019-05-15T22:50:08.144Z,10.10
2019-05-15T22:52:38.843Z,10.06
2019-05-15T22:55:10.213Z,10.03
2019-05-15T22:57:44.837Z,9.99
2019-05-15T23:00:15.441Z,9.94
2019-05-15T23:02:48.568Z,9.89
2019-05-15T23:05:27.633Z,9.86
2019-05-15T23:07:49.846Z,9.84
2019-05-15T23:10:20.056Z,9.76
2019-05-15T23:12:50.289Z,9.77
2019-05-15T23:15:20.654Z,9.72
2019-05-15T23:17:50.969Z,9.66
2019-05-15T23:20:21.327Z,9.60
2019-05-15T23:22:51.478Z,9.54
2019-05-15T23:25:21.582Z,9.49
2019-05-15T23:27:51.680Z,9.44
2019-05-15T23:30:22.109Z,9.39
2019-05-15T23:32:52.149Z,9.35
2019-05-15T23:35:34.700Z,9.29
2019-05-15T23:37:54.335Z,9.28
2019-05-15T23:40:24.497Z,9.25
2019-05-15T23:42:54.802Z,9.23
2019-05-15T23:45:25.116Z,9.21
2019-05-15T23:47:57.840Z,9.18
2019-05-15T23:50:28.894Z,9.16
2019-05-15T23:52:59.219Z,9.12
2019-05-15T23:55:29.486Z,9.09
2019-05-15T23:57:59.584Z,9.08
